sensor_id;sensor_type;location;lat;lon;timestamp;P1;durP1;ratioP1;P2;durP2;ratioP2
71164;SDS011;58859;55.132;-1.586;2023-02-11T00:00:32;2.57;;;1.33;;
71164;SDS011;58859;55.132;-1.586;2023-02-11T00:02:58;0.68;;;0.68;;
71164;SDS011;58859;55.132;-1.586;2023-02-11T00:05:23;2.57;;;0.60;;
71164;SDS011;58859;55.132;-1.586;2023-02-11T00:07:48;2.20;;;0.90;;
71164;SDS011;58859;55.132;-1.586;2023-02-11T00:10:14;1.23;;;0.45;;
71164;SDS011;58859;55.132;-1.586;2023-02-11T00:12:39;1.60;;;0.30;;
71164;SDS011;58859;55.132;-1.586;2023-02-11T00:15:06;0.98;;;0.88;;
71164;SDS011;58859;55.132;-1.586;2023-02-11T00:17:32;2.50;;;0.70;;
71164;SDS011;58859;55.132;-1.586;2023-02-11T00:19:57;0.90;;;0.90;;
71164;SDS011;58859;55.132;-1.586;2023-02-11T00:22:23;0.60;;;0.60;;
71164;SDS011;58859;55.132;-1.586;2023-02-11T00:24:48;1.27;;;0.77;;
71164;SDS011;58859;55.132;-1.586;2023-02-11T00:27:14;2.70;;;0.60;;
71164;SDS011;58859;55.132;-1.586;2023-02-11T00:29:39;0.90;;;0.80;;
71164;SDS011;58859;55.132;-1.586;2023-02-11T00:32:05;1.95;;;0.93;;
71164;SDS011;58859;55.132;-1.586;2023-02-11T00:34:33;1.25;;;1.15;;
71164;SDS011;58859;55.132;-1.586;2023-02-11T00:36:59;1.98;;;0.90;;
71164;SDS011;58859;55.132;-1.586;2023-02-11T00:39:24;0.97;;;0.80;;
71164;SDS011;58859;55.132;-1.586;2023-02-11T00:41:50;1.53;;;0.80;;
71164;SDS011;58859;55.132;-1.586;2023-02-11T00:44:15;1.20;;;0.95;;
71164;SDS011;58859;55.132;-1.586;2023-02-11T00:46:41;1.27;;;0.90;;
71164;SDS011;58859;55.132;-1.586;2023-02-11T00:49:06;0.93;;;0.80;;
71164;SDS011;58859;55.132;-1.586;2023-02-11T00:51:32;1.07;;;1.07;;
71164;SDS011;58859;55.132;-1.586;2023-02-11T00:53:57;0.70;;;0.70;;
71164;SDS011;58859;55.132;-1.586;2023-02-11T00:56:22;0.70;;;0.70;;
71164;SDS011;58859;55.132;-1.586;2023-02-11T00:58:48;0.80;;;0.60;;
71164;SDS011;58859;55.132;-1.586;2023-02-11T01:01:14;2.80;;;0.75;;
71164;SDS011;58859;55.132;-1.586;2023-02-11T01:03:39;1.30;;;0.77;;
71164;SDS011;58859;55.132;-1.586;2023-02-11T01:06:06;0.80;;;0.80;;
71164;SDS011;58859;55.132;-1.586;2023-02-11T01:08:31;1.48;;;0.93;;
71164;SDS011;58859;55.132;-1.586;2023-02-11T01:10:58;1.37;;;0.97;;
71164;SDS011;58859;55.132;-1.586;2023-02-11T01:13:25;3.22;;;1.02;;
71164;SDS011;58859;55.132;-1.586;2023-02-11T01:15:51;0.80;;;0.80;;
71164;SDS011;58859;55.132;-1.586;2023-02-11T01:18:17;1.03;;;0.90;;
71164;SDS011;58859;55.132;-1.586;2023-02-11T01:20:42;2.50;;;1.10;;
71164;SDS011;58859;55.132;-1.586;2023-02-11T01:23:08;1.20;;;1.17;;
71164;SDS011;58859;55.132;-1.586;2023-02-11T01:25:33;1.17;;;1.07;;
71164;SDS011;58859;55.132;-1.586;2023-02-11T01:27:58;1.63;;;0.70;;
71164;SDS011;58859;55.132;-1.586;2023-02-11T01:30:24;2.23;;;1.17;;
71164;SDS011;58859;55.132;-1.586;2023-02-11T01:32:49;0.90;;;0.90;;
71164;SDS011;58859;55.132;-1.586;2023-02-11T01:35:15;1.27;;;1.17;;
71164;SDS011;58859;55.132;-1.586;2023-02-11T01:37:40;2.53;;;1.00;;
71164;SDS011;58859;55.132;-1.586;2023-02-11T01:40:07;7.93;;;1.90;;
71164;SDS011;58859;55.132;-1.586;2023-02-11T01:42:37;3.42;;;1.02;;
71164;SDS011;58859;55.132;-1.586;2023-02-11T01:48:08;1.77;;;1.05;;
71164;SDS011;58859;55.132;-1.586;2023-02-11T01:50:35;1.40;;;0.90;;
71164;SDS011;58859;55.132;-1.586;2023-02-11T01:53:01;2.17;;;1.10;;
71164;SDS011;58859;55.132;-1.586;2023-02-11T01:55:47;1.00;;;0.90;;
71164;SDS011;58859;55.132;-1.586;2023-02-11T01:58:31;0.50;;;0.50;;
71164;SDS011;58859;55.132;-1.586;2023-02-11T02:00:57;1.35;;;1.00;;
71164;SDS011;58859;55.132;-1.586;2023-02-11T02:03:23;2.05;;;1.38;;
71164;SDS011;58859;55.132;-1.586;2023-02-11T02:11:05;1.02;;;0.93;;
71164;SDS011;58859;55.132;-1.586;2023-02-11T02:13:32;0.87;;;0.80;;
71164;SDS011;58859;55.132;-1.586;2023-02-11T02:15:59;1.10;;;1.10;;
71164;SDS011;58859;55.132;-1.586;2023-02-11T02:29:37;1.73;;;1.30;;
71164;SDS011;58859;55.132;-1.586;2023-02-11T02:40:16;1.25;;;1.10;;
71164;SDS011;58859;55.132;-1.586;2023-02-11T02:43:01;2.15;;;1.30;;
71164;SDS011;58859;55.132;-1.586;2023-02-11T02:45:27;2.80;;;1.40;;
71164;SDS011;58859;55.132;-1.586;2023-02-11T02:47:53;2.38;;;1.10;;
71164;SDS011;58859;55.132;-1.586;2023-02-11T02:50:20;3.17;;;1.10;;
71164;SDS011;58859;55.132;-1.586;2023-02-11T02:55:39;2.63;;;1.67;;
71164;SDS011;58859;55.132;-1.586;2023-02-11T03:04:18;3.85;;;1.15;;
71164;SDS011;58859;55.132;-1.586;2023-02-11T03:06:52;1.88;;;1.10;;
71164;SDS011;58859;55.132;-1.586;2023-02-11T03:12:46;2.28;;;1.08;;
71164;SDS011;58859;55.132;-1.586;2023-02-11T03:15:12;2.15;;;1.02;;
71164;SDS011;58859;55.132;-1.586;2023-02-11T03:17:38;1.95;;;1.00;;
71164;SDS011;58859;55.132;-1.586;2023-02-11T03:20:05;1.27;;;1.20;;
71164;SDS011;58859;55.132;-1.586;2023-02-11T03:22:36;0.90;;;0.90;;
71164;SDS011;58859;55.132;-1.586;2023-02-11T03:25:05;1.35;;;1.25;;
71164;SDS011;58859;55.132;-1.586;2023-02-11T03:27:42;1.42;;;1.27;;
71164;SDS011;58859;55.132;-1.586;2023-02-11T03:30:24;0.97;;;0.93;;
71164;SDS011;58859;55.132;-1.586;2023-02-11T03:32:56;1.38;;;0.88;;
71164;SDS011;58859;55.132;-1.586;2023-02-11T03:35:32;2.67;;;1.42;;
71164;SDS011;58859;55.132;-1.586;2023-02-11T03:40:31;3.83;;;1.48;;
71164;SDS011;58859;55.132;-1.586;2023-02-11T03:43:02;1.30;;;0.80;;
71164;SDS011;58859;55.132;-1.586;2023-02-11T03:45:31;1.30;;;0.88;;
71164;SDS011;58859;55.132;-1.586;2023-02-11T03:47:59;1.35;;;1.00;;
71164;SDS011;58859;55.132;-1.586;2023-02-11T03:50:25;2.20;;;1.48;;
71164;SDS011;58859;55.132;-1.586;2023-02-11T03:52:52;1.00;;;1.00;;
71164;SDS011;58859;55.132;-1.586;2023-02-11T03:55:19;1.00;;;1.00;;
71164;SDS011;58859;55.132;-1.586;2023-02-11T03:57:45;1.40;;;1.10;;
71164;SDS011;58859;55.132;-1.586;2023-02-11T04:00:11;1.17;;;1.17;;
71164;SDS011;58859;55.132;-1.586;2023-02-11T04:02:38;1.65;;;1.05;;
71164;SDS011;58859;55.132;-1.586;2023-02-11T04:05:04;1.10;;;1.00;;
71164;SDS011;58859;55.132;-1.586;2023-02-11T04:07:30;3.25;;;1.08;;
71164;SDS011;58859;55.132;-1.586;2023-02-11T04:09:56;1.08;;;1.08;;
71164;SDS011;58859;55.132;-1.586;2023-02-11T04:12:22;1.30;;;0.90;;
71164;SDS011;58859;55.132;-1.586;2023-02-11T04:14:47;1.60;;;1.40;;
71164;SDS011;58859;55.132;-1.586;2023-02-11T04:17:13;1.13;;;1.13;;
71164;SDS011;58859;55.132;-1.586;2023-02-11T04:19:38;2.00;;;1.10;;
71164;SDS011;58859;55.132;-1.586;2023-02-11T04:22:04;3.87;;;1.30;;
71164;SDS011;58859;55.132;-1.586;2023-02-11T04:24:29;2.33;;;1.08;;
71164;SDS011;58859;55.132;-1.586;2023-02-11T04:26:54;1.13;;;1.13;;
71164;SDS011;58859;55.132;-1.586;2023-02-11T04:29:20;1.10;;;1.00;;
71164;SDS011;58859;55.132;-1.586;2023-02-11T04:31:45;0.90;;;0.90;;
71164;SDS011;58859;55.132;-1.586;2023-02-11T04:34:11;1.40;;;0.93;;
71164;SDS011;58859;55.132;-1.586;2023-02-11T04:36:37;1.10;;;1.00;;
71164;SDS011;58859;55.132;-1.586;2023-02-11T04:39:02;1.20;;;1.10;;
71164;SDS011;58859;55.132;-1.586;2023-02-11T04:41:28;1.20;;;1.10;;
71164;SDS011;58859;55.132;-1.586;2023-02-11T04:43:53;1.27;;;0.93;;
71164;SDS011;58859;55.132;-1.586;2023-02-11T04:46:19;1.13;;;1.03;;
71164;SDS011;58859;55.132;-1.586;2023-02-11T04:48:44;3.60;;;1.40;;
71164;SDS011;58859;55.132;-1.586;2023-02-11T04:51:10;1.92;;;1.10;;
71164;SDS011;58859;55.132;-1.586;2023-02-11T04:53:35;1.10;;;1.00;;
71164;SDS011;58859;55.132;-1.586;2023-02-11T04:56:00;2.30;;;1.60;;
71164;SDS011;58859;55.132;-1.586;2023-02-11T04:58:26;1.67;;;0.77;;
71164;SDS011;58859;55.132;-1.586;2023-02-11T05:00:51;1.87;;;0.90;;
71164;SDS011;58859;55.132;-1.586;2023-02-11T05:03:16;1.00;;;0.90;;
71164;SDS011;58859;55.132;-1.586;2023-02-11T05:05:42;1.13;;;1.02;;
71164;SDS011;58859;55.132;-1.586;2023-02-11T05:08:08;1.58;;;1.20;;
71164;SDS011;58859;55.132;-1.586;2023-02-11T05:10:34;1.27;;;1.17;;
71164;SDS011;58859;55.132;-1.586;2023-02-11T05:13:00;2.10;;;1.23;;
71164;SDS011;58859;55.132;-1.586;2023-02-11T05:15:25;1.98;;;1.10;;
71164;SDS011;58859;55.132;-1.586;2023-02-11T05:17:51;3.70;;;1.20;;
71164;SDS011;58859;55.132;-1.586;2023-02-11T05:20:17;0.90;;;0.90;;
71164;SDS011;58859;55.132;-1.586;2023-02-11T05:22:42;2.67;;;1.20;;
71164;SDS011;58859;55.132;-1.586;2023-02-11T05:25:08;1.87;;;1.27;;
71164;SDS011;58859;55.132;-1.586;2023-02-11T05:27:33;1.33;;;1.13;;
71164;SDS011;58859;55.132;-1.586;2023-02-11T05:29:59;1.50;;;1.40;;
71164;SDS011;58859;55.132;-1.586;2023-02-11T05:32:24;1.90;;;1.27;;
71164;SDS011;58859;55.132;-1.586;2023-02-11T05:34:49;1.47;;;1.37;;
71164;SDS011;58859;55.132;-1.586;2023-02-11T05:37:15;1.30;;;1.13;;
71164;SDS011;58859;55.132;-1.586;2023-02-11T05:39:40;2.40;;;1.07;;
71164;SDS011;58859;55.132;-1.586;2023-02-11T05:42:06;1.05;;;0.95;;
71164;SDS011;58859;55.132;-1.586;2023-02-11T05:44:31;1.40;;;1.40;;
71164;SDS011;58859;55.132;-1.586;2023-02-11T05:46:56;1.73;;;1.03;;
71164;SDS011;58859;55.132;-1.586;2023-02-11T05:49:22;1.23;;;1.10;;
71164;SDS011;58859;55.132;-1.586;2023-02-11T05:51:47;2.27;;;1.43;;
71164;SDS011;58859;55.132;-1.586;2023-02-11T05:54:13;1.38;;;1.00;;
71164;SDS011;58859;55.132;-1.586;2023-02-11T05:56:38;1.60;;;1.00;;
71164;SDS011;58859;55.132;-1.586;2023-02-11T05:59:04;2.97;;;1.63;;
71164;SDS011;58859;55.132;-1.586;2023-02-11T06:01:29;2.38;;;1.10;;
71164;SDS011;58859;55.132;-1.586;2023-02-11T06:03:55;1.67;;;1.20;;
71164;SDS011;58859;55.132;-1.586;2023-02-11T06:06:20;3.47;;;1.20;;
71164;SDS011;58859;55.132;-1.586;2023-02-11T06:08:46;1.77;;;1.40;;
71164;SDS011;58859;55.132;-1.586;2023-02-11T06:11:13;1.10;;;1.00;;
71164;SDS011;58859;55.132;-1.586;2023-02-11T06:13:39;2.63;;;1.35;;
71164;SDS011;58859;55.132;-1.586;2023-02-11T06:16:05;1.53;;;1.27;;
71164;SDS011;58859;55.132;-1.586;2023-02-11T06:18:30;2.37;;;1.27;;
71164;SDS011;58859;55.132;-1.586;2023-02-11T06:20:57;1.63;;;1.45;;
71164;SDS011;58859;55.132;-1.586;2023-02-11T06:23:23;1.02;;;1.00;;
71164;SDS011;58859;55.132;-1.586;2023-02-11T06:25:48;3.80;;;1.42;;
71164;SDS011;58859;55.132;-1.586;2023-02-11T06:28:14;1.60;;;1.50;;
71164;SDS011;58859;55.132;-1.586;2023-02-11T06:30:39;2.10;;;1.20;;
71164;SDS011;58859;55.132;-1.586;2023-02-11T06:33:05;2.67;;;1.50;;
71164;SDS011;58859;55.132;-1.586;2023-02-11T06:35:30;1.80;;;1.70;;
71164;SDS011;58859;55.132;-1.586;2023-02-11T06:37:57;1.60;;;1.50;;
71164;SDS011;58859;55.132;-1.586;2023-02-11T06:40:23;3.65;;;1.30;;
71164;SDS011;58859;55.132;-1.586;2023-02-11T06:42:48;1.47;;;1.30;;
71164;SDS011;58859;55.132;-1.586;2023-02-11T06:45:14;1.73;;;1.40;;
71164;SDS011;58859;55.132;-1.586;2023-02-11T06:47:39;4.10;;;1.80;;
71164;SDS011;58859;55.132;-1.586;2023-02-11T06:50:06;2.13;;;1.73;;
71164;SDS011;58859;55.132;-1.586;2023-02-11T06:52:33;1.42;;;1.30;;
71164;SDS011;58859;55.132;-1.586;2023-02-11T06:54:58;2.50;;;1.50;;
71164;SDS011;58859;55.132;-1.586;2023-02-11T06:57:24;3.85;;;1.92;;
71164;SDS011;58859;55.132;-1.586;2023-02-11T06:59:49;2.33;;;1.80;;
71164;SDS011;58859;55.132;-1.586;2023-02-11T07:02:15;2.10;;;1.37;;
71164;SDS011;58859;55.132;-1.586;2023-02-11T07:04:40;1.70;;;1.60;;
71164;SDS011;58859;55.132;-1.586;2023-02-11T07:07:05;2.63;;;1.52;;
71164;SDS011;58859;55.132;-1.586;2023-02-11T07:09:31;1.98;;;1.77;;
71164;SDS011;58859;55.132;-1.586;2023-02-11T07:11:56;2.97;;;1.70;;
71164;SDS011;58859;55.132;-1.586;2023-02-11T07:14:22;2.50;;;1.77;;
71164;SDS011;58859;55.132;-1.586;2023-02-11T07:16:47;1.40;;;1.30;;
71164;SDS011;58859;55.132;-1.586;2023-02-11T07:19:12;1.58;;;1.48;;
71164;SDS011;58859;55.132;-1.586;2023-02-11T07:21:38;1.73;;;1.60;;
71164;SDS011;58859;55.132;-1.586;2023-02-11T07:24:10;2.37;;;1.77;;
71164;SDS011;58859;55.132;-1.586;2023-02-11T07:26:35;3.22;;;1.77;;
71164;SDS011;58859;55.132;-1.586;2023-02-11T07:29:01;2.33;;;1.70;;
71164;SDS011;58859;55.132;-1.586;2023-02-11T07:31:27;2.30;;;1.60;;
71164;SDS011;58859;55.132;-1.586;2023-02-11T07:33:54;1.70;;;1.60;;
71164;SDS011;58859;55.132;-1.586;2023-02-11T07:36:22;5.80;;;2.00;;
71164;SDS011;58859;55.132;-1.586;2023-02-11T07:38:48;2.92;;;1.88;;
71164;SDS011;58859;55.132;-1.586;2023-02-11T07:41:15;2.00;;;1.90;;
71164;SDS011;58859;55.132;-1.586;2023-02-11T07:43:43;2.97;;;1.63;;
71164;SDS011;58859;55.132;-1.586;2023-02-11T07:46:09;2.13;;;1.52;;
71164;SDS011;58859;55.132;-1.586;2023-02-11T07:48:40;2.35;;;1.58;;
71164;SDS011;58859;55.132;-1.586;2023-02-11T07:51:09;2.60;;;1.50;;
71164;SDS011;58859;55.132;-1.586;2023-02-11T07:53:39;1.52;;;1.33;;
71164;SDS011;58859;55.132;-1.586;2023-02-11T07:56:06;2.00;;;1.60;;
71164;SDS011;58859;55.132;-1.586;2023-02-11T07:58:32;2.17;;;1.98;;
71164;SDS011;58859;55.132;-1.586;2023-02-11T08:01:01;1.77;;;1.43;;
71164;SDS011;58859;55.132;-1.586;2023-02-11T08:03:28;2.17;;;1.90;;
71164;SDS011;58859;55.132;-1.586;2023-02-11T08:05:54;2.47;;;1.60;;
71164;SDS011;58859;55.132;-1.586;2023-02-11T08:08:19;2.95;;;1.45;;
71164;SDS011;58859;55.132;-1.586;2023-02-11T08:10:44;1.90;;;1.57;;
71164;SDS011;58859;55.132;-1.586;2023-02-11T08:13:10;1.93;;;1.50;;
71164;SDS011;58859;55.132;-1.586;2023-02-11T08:15:35;1.50;;;1.40;;
71164;SDS011;58859;55.132;-1.586;2023-02-11T08:18:00;1.83;;;1.67;;
71164;SDS011;58859;55.132;-1.586;2023-02-11T08:20:26;2.65;;;1.88;;
71164;SDS011;58859;55.132;-1.586;2023-02-11T08:22:51;3.37;;;1.87;;
71164;SDS011;58859;55.132;-1.586;2023-02-11T08:25:17;2.13;;;1.93;;
71164;SDS011;58859;55.132;-1.586;2023-02-11T08:27:42;1.93;;;1.63;;
71164;SDS011;58859;55.132;-1.586;2023-02-11T08:30:08;1.42;;;1.33;;
71164;SDS011;58859;55.132;-1.586;2023-02-11T08:32:34;1.67;;;1.30;;
71164;SDS011;58859;55.132;-1.586;2023-02-11T08:34:59;1.40;;;1.30;;
71164;SDS011;58859;55.132;-1.586;2023-02-11T08:37:25;2.03;;;1.40;;
71164;SDS011;58859;55.132;-1.586;2023-02-11T08:39:50;1.77;;;1.67;;
71164;SDS011;58859;55.132;-1.586;2023-02-11T08:42:15;4.00;;;2.00;;
71164;SDS011;58859;55.132;-1.586;2023-02-11T08:44:41;2.73;;;1.30;;
71164;SDS011;58859;55.132;-1.586;2023-02-11T08:47:07;1.98;;;1.73;;
71164;SDS011;58859;55.132;-1.586;2023-02-11T08:49:32;1.17;;;1.17;;
71164;SDS011;58859;55.132;-1.586;2023-02-11T08:51:58;1.65;;;1.40;;
71164;SDS011;58859;55.132;-1.586;2023-02-11T08:54:27;1.27;;;1.17;;
71164;SDS011;58859;55.132;-1.586;2023-02-11T08:56:53;1.15;;;1.15;;
71164;SDS011;58859;55.132;-1.586;2023-02-11T08:59:18;1.53;;;1.43;;
71164;SDS011;58859;55.132;-1.586;2023-02-11T09:01:44;2.10;;;1.47;;
71164;SDS011;58859;55.132;-1.586;2023-02-11T09:04:11;1.75;;;1.65;;
71164;SDS011;58859;55.132;-1.586;2023-02-11T09:06:37;1.17;;;1.15;;
71164;SDS011;58859;55.132;-1.586;2023-02-11T09:09:02;1.60;;;1.03;;
71164;SDS011;58859;55.132;-1.586;2023-02-11T09:11:32;1.45;;;1.35;;
71164;SDS011;58859;55.132;-1.586;2023-02-11T09:13:59;1.80;;;1.27;;
71164;SDS011;58859;55.132;-1.586;2023-02-11T09:16:26;1.17;;;1.07;;
71164;SDS011;58859;55.132;-1.586;2023-02-11T09:18:55;1.38;;;1.17;;
71164;SDS011;58859;55.132;-1.586;2023-02-11T09:21:21;2.10;;;1.20;;
71164;SDS011;58859;55.132;-1.586;2023-02-11T09:23:46;1.17;;;1.00;;
71164;SDS011;58859;55.132;-1.586;2023-02-11T09:26:19;2.80;;;1.20;;
71164;SDS011;58859;55.132;-1.586;2023-02-11T09:28:49;1.27;;;1.07;;
71164;SDS011;58859;55.132;-1.586;2023-02-11T09:31:16;1.58;;;1.17;;
71164;SDS011;58859;55.132;-1.586;2023-02-11T09:33:43;1.48;;;1.15;;
71164;SDS011;58859;55.132;-1.586;2023-02-11T09:36:13;2.05;;;1.15;;
71164;SDS011;58859;55.132;-1.586;2023-02-11T09:38:40;1.50;;;1.17;;
71164;SDS011;58859;55.132;-1.586;2023-02-11T09:41:12;1.90;;;1.10;;
71164;SDS011;58859;55.132;-1.586;2023-02-11T09:43:48;1.55;;;1.35;;
71164;SDS011;58859;55.132;-1.586;2023-02-11T09:46:16;3.08;;;1.50;;
71164;SDS011;58859;55.132;-1.586;2023-02-11T09:48:43;1.50;;;1.40;;
71164;SDS011;58859;55.132;-1.586;2023-02-11T09:53:49;1.50;;;1.00;;
71164;SDS011;58859;55.132;-1.586;2023-02-11T09:56:15;1.38;;;1.05;;
71164;SDS011;58859;55.132;-1.586;2023-02-11T09:58:41;1.00;;;0.90;;
71164;SDS011;58859;55.132;-1.586;2023-02-11T10:04:06;2.28;;;1.20;;
71164;SDS011;58859;55.132;-1.586;2023-02-11T10:07:06;1.00;;;1.00;;
71164;SDS011;58859;55.132;-1.586;2023-02-11T10:15:24;1.60;;;1.30;;
71164;SDS011;58859;55.132;-1.586;2023-02-11T10:20:24;1.90;;;1.15;;
71164;SDS011;58859;55.132;-1.586;2023-02-11T10:23:04;1.27;;;1.27;;
71164;SDS011;58859;55.132;-1.586;2023-02-11T10:25:44;0.90;;;0.90;;
71164;SDS011;58859;55.132;-1.586;2023-02-11T10:28:19;0.85;;;0.70;;
71164;SDS011;58859;55.132;-1.586;2023-02-11T10:35:45;0.73;;;0.70;;
71164;SDS011;58859;55.132;-1.586;2023-02-11T10:38:11;1.10;;;1.10;;
71164;SDS011;58859;55.132;-1.586;2023-02-11T10:40:36;0.40;;;0.40;;
71164;SDS011;58859;55.132;-1.586;2023-02-11T10:43:07;0.68;;;0.60;;
71164;SDS011;58859;55.132;-1.586;2023-02-11T10:45:36;0.68;;;0.57;;
71164;SDS011;58859;55.132;-1.586;2023-02-11T10:48:04;1.35;;;0.80;;
71164;SDS011;58859;55.132;-1.586;2023-02-11T10:50:31;1.20;;;0.40;;
71164;SDS011;58859;55.132;-1.586;2023-02-11T10:53:10;0.60;;;0.60;;
71164;SDS011;58859;55.132;-1.586;2023-02-11T10:55:54;3.40;;;0.82;;
71164;SDS011;58859;55.132;-1.586;2023-02-11T10:58:25;0.90;;;0.80;;
71164;SDS011;58859;55.132;-1.586;2023-02-11T11:00:53;1.77;;;0.70;;
71164;SDS011;58859;55.132;-1.586;2023-02-11T11:03:22;0.75;;;0.70;;
71164;SDS011;58859;55.132;-1.586;2023-02-11T11:05:50;0.97;;;0.30;;
71164;SDS011;58859;55.132;-1.586;2023-02-11T11:08:36;0.98;;;0.60;;
71164;SDS011;58859;55.132;-1.586;2023-02-11T11:11:03;0.70;;;0.68;;
71164;SDS011;58859;55.132;-1.586;2023-02-11T11:13:31;0.55;;;0.55;;
71164;SDS011;58859;55.132;-1.586;2023-02-11T11:16:10;1.00;;;1.00;;
71164;SDS011;58859;55.132;-1.586;2023-02-11T11:18:41;0.93;;;0.80;;
71164;SDS011;58859;55.132;-1.586;2023-02-11T11:21:13;0.95;;;0.40;;
71164;SDS011;58859;55.132;-1.586;2023-02-11T11:23:45;0.70;;;0.70;;
71164;SDS011;58859;55.132;-1.586;2023-02-11T11:26:13;1.65;;;0.70;;
71164;SDS011;58859;55.132;-1.586;2023-02-11T11:31:35;0.60;;;0.60;;
71164;SDS011;58859;55.132;-1.586;2023-02-11T11:36:49;1.10;;;0.70;;
71164;SDS011;58859;55.132;-1.586;2023-02-11T11:42:04;1.48;;;1.02;;
71164;SDS011;58859;55.132;-1.586;2023-02-11T11:44:46;1.00;;;1.00;;
71164;SDS011;58859;55.132;-1.586;2023-02-11T11:47:24;0.70;;;0.63;;
71164;SDS011;58859;55.132;-1.586;2023-02-11T11:53:47;0.60;;;0.50;;
71164;SDS011;58859;55.132;-1.586;2023-02-11T11:55:52;1.20;;;0.50;;
71164;SDS011;58859;55.132;-1.586;2023-02-11T11:58:38;0.80;;;0.80;;
71164;SDS011;58859;55.132;-1.586;2023-02-11T12:06:40;0.88;;;0.88;;
71164;SDS011;58859;55.132;-1.586;2023-02-11T12:09:28;0.50;;;0.50;;
71164;SDS011;58859;55.132;-1.586;2023-02-11T12:14:46;0.40;;;0.40;;
71164;SDS011;58859;55.132;-1.586;2023-02-11T12:26:06;1.38;;;0.80;;
71164;SDS011;58859;55.132;-1.586;2023-02-11T12:28:43;0.30;;;0.30;;
71164;SDS011;58859;55.132;-1.586;2023-02-11T12:34:50;2.22;;;0.47;;
71164;SDS011;58859;55.132;-1.586;2023-02-11T12:40:25;0.40;;;0.40;;
71164;SDS011;58859;55.132;-1.586;2023-02-11T12:50:55;0.20;;;0.20;;
71164;SDS011;58859;55.132;-1.586;2023-02-11T12:53:28;1.20;;;0.40;;
71164;SDS011;58859;55.132;-1.586;2023-02-11T12:55:58;0.20;;;0.20;;
71164;SDS011;58859;55.132;-1.586;2023-02-11T12:58:25;0.65;;;0.30;;
71164;SDS011;58859;55.132;-1.586;2023-02-11T13:01:07;0.85;;;0.75;;
71164;SDS011;58859;55.132;-1.586;2023-02-11T13:03:39;0.60;;;0.60;;
71164;SDS011;58859;55.132;-1.586;2023-02-11T13:06:24;0.63;;;0.50;;
71164;SDS011;58859;55.132;-1.586;2023-02-11T13:08:54;0.47;;;0.33;;
71164;SDS011;58859;55.132;-1.586;2023-02-11T13:11:26;1.15;;;0.30;;
71164;SDS011;58859;55.132;-1.586;2023-02-11T13:13:59;0.43;;;0.30;;
71164;SDS011;58859;55.132;-1.586;2023-02-11T13:16:40;0.75;;;0.45;;
71164;SDS011;58859;55.132;-1.586;2023-02-11T13:27:07;0.57;;;0.57;;
71164;SDS011;58859;55.132;-1.586;2023-02-11T13:37:54;0.63;;;0.60;;
71164;SDS011;58859;55.132;-1.586;2023-02-11T13:40:22;0.60;;;0.52;;
71164;SDS011;58859;55.132;-1.586;2023-02-11T13:42:53;1.45;;;0.68;;
71164;SDS011;58859;55.132;-1.586;2023-02-11T13:47:55;0.30;;;0.30;;
71164;SDS011;58859;55.132;-1.586;2023-02-11T13:50:22;0.57;;;0.35;;
71164;SDS011;58859;55.132;-1.586;2023-02-11T13:52:54;0.40;;;0.40;;
71164;SDS011;58859;55.132;-1.586;2023-02-11T13:55:21;0.40;;;0.40;;
71164;SDS011;58859;55.132;-1.586;2023-02-11T14:08:58;1.23;;;0.35;;
71164;SDS011;58859;55.132;-1.586;2023-02-11T14:25:02;0.53;;;0.30;;
71164;SDS011;58859;55.132;-1.586;2023-02-11T14:30:09;6.72;;;0.63;;
71164;SDS011;58859;55.132;-1.586;2023-02-11T14:43:12;0.25;;;0.25;;
71164;SDS011;58859;55.132;-1.586;2023-02-11T14:45:47;0.65;;;0.50;;
71164;SDS011;58859;55.132;-1.586;2023-02-11T14:48:16;0.90;;;0.50;;
71164;SDS011;58859;55.132;-1.586;2023-02-11T14:50:52;1.93;;;0.50;;
71164;SDS011;58859;55.132;-1.586;2023-02-11T14:53:23;4.85;;;0.70;;
71164;SDS011;58859;55.132;-1.586;2023-02-11T14:55:50;1.10;;;0.32;;
71164;SDS011;58859;55.132;-1.586;2023-02-11T15:00:53;2.45;;;0.50;;
71164;SDS011;58859;55.132;-1.586;2023-02-11T15:03:28;0.63;;;0.30;;
71164;SDS011;58859;55.132;-1.586;2023-02-11T15:05:55;2.92;;;0.30;;
71164;SDS011;58859;55.132;-1.586;2023-02-11T15:08:26;0.28;;;0.28;;
71164;SDS011;58859;55.132;-1.586;2023-02-11T15:10:51;0.20;;;0.20;;
71164;SDS011;58859;55.132;-1.586;2023-02-11T15:13:19;1.80;;;0.60;;
71164;SDS011;58859;55.132;-1.586;2023-02-11T15:15:46;1.52;;;1.17;;
71164;SDS011;58859;55.132;-1.586;2023-02-11T15:18:19;4.20;;;1.80;;
71164;SDS011;58859;55.132;-1.586;2023-02-11T15:20:46;1.38;;;0.60;;
71164;SDS011;58859;55.132;-1.586;2023-02-11T15:23:15;3.60;;;1.10;;
71164;SDS011;58859;55.132;-1.586;2023-02-11T15:25:47;0.80;;;0.70;;
71164;SDS011;58859;55.132;-1.586;2023-02-11T15:28:23;0.40;;;0.40;;
71164;SDS011;58859;55.132;-1.586;2023-02-11T15:31:00;0.82;;;0.82;;
71164;SDS011;58859;55.132;-1.586;2023-02-11T15:33:36;0.30;;;0.30;;
71164;SDS011;58859;55.132;-1.586;2023-02-11T15:36:01;0.40;;;0.40;;
71164;SDS011;58859;55.132;-1.586;2023-02-11T15:38:27;0.40;;;0.40;;
71164;SDS011;58859;55.132;-1.586;2023-02-11T15:40:59;1.90;;;0.70;;
71164;SDS011;58859;55.132;-1.586;2023-02-11T15:43:42;1.75;;;0.40;;
71164;SDS011;58859;55.132;-1.586;2023-02-11T15:46:10;0.40;;;0.40;;
71164;SDS011;58859;55.132;-1.586;2023-02-11T15:48:53;0.40;;;0.40;;
71164;SDS011;58859;55.132;-1.586;2023-02-11T15:53:56;0.57;;;0.38;;
71164;SDS011;58859;55.132;-1.586;2023-02-11T15:56:30;0.65;;;0.20;;
71164;SDS011;58859;55.132;-1.586;2023-02-11T15:59:07;1.48;;;0.80;;
71164;SDS011;58859;55.132;-1.586;2023-02-11T16:01:37;1.00;;;0.68;;
71164;SDS011;58859;55.132;-1.586;2023-02-11T16:04:04;0.43;;;0.43;;
71164;SDS011;58859;55.132;-1.586;2023-02-11T16:06:39;2.87;;;0.77;;
71164;SDS011;58859;55.132;-1.586;2023-02-11T16:11:52;2.95;;;0.40;;
71164;SDS011;58859;55.132;-1.586;2023-02-11T16:14:21;0.57;;;0.57;;
71164;SDS011;58859;55.132;-1.586;2023-02-11T16:16:57;1.75;;;0.80;;
71164;SDS011;58859;55.132;-1.586;2023-02-11T16:19:33;0.60;;;0.60;;
71164;SDS011;58859;55.132;-1.586;2023-02-11T16:22:00;1.35;;;0.60;;
71164;SDS011;58859;55.132;-1.586;2023-02-11T16:24:32;0.30;;;0.30;;
71164;SDS011;58859;55.132;-1.586;2023-02-11T16:27:00;0.93;;;0.55;;
71164;SDS011;58859;55.132;-1.586;2023-02-11T16:29:30;0.50;;;0.50;;
71164;SDS011;58859;55.132;-1.586;2023-02-11T16:32:15;0.50;;;0.50;;
71164;SDS011;58859;55.132;-1.586;2023-02-11T16:34:42;0.85;;;0.30;;
71164;SDS011;58859;55.132;-1.586;2023-02-11T16:37:07;0.50;;;0.50;;
71164;SDS011;58859;55.132;-1.586;2023-02-11T16:39:33;2.03;;;0.73;;
71164;SDS011;58859;55.132;-1.586;2023-02-11T16:41:58;1.90;;;0.97;;
71164;SDS011;58859;55.132;-1.586;2023-02-11T16:44:24;0.65;;;0.50;;
71164;SDS011;58859;55.132;-1.586;2023-02-11T16:46:53;1.35;;;0.52;;
71164;SDS011;58859;55.132;-1.586;2023-02-11T16:49:21;0.50;;;0.50;;
71164;SDS011;58859;55.132;-1.586;2023-02-11T16:51:49;1.10;;;0.52;;
71164;SDS011;58859;55.132;-1.586;2023-02-11T16:54:17;0.50;;;0.50;;
71164;SDS011;58859;55.132;-1.586;2023-02-11T16:56:43;0.65;;;0.60;;
71164;SDS011;58859;55.132;-1.586;2023-02-11T16:59:08;1.17;;;0.60;;
71164;SDS011;58859;55.132;-1.586;2023-02-11T17:01:34;1.65;;;0.52;;
71164;SDS011;58859;55.132;-1.586;2023-02-11T17:04:00;0.90;;;0.90;;
71164;SDS011;58859;55.132;-1.586;2023-02-11T17:06:26;1.02;;;0.90;;
71164;SDS011;58859;55.132;-1.586;2023-02-11T17:08:52;1.08;;;0.70;;
71164;SDS011;58859;55.132;-1.586;2023-02-11T17:11:17;0.60;;;0.60;;
71164;SDS011;58859;55.132;-1.586;2023-02-11T17:13:44;1.90;;;1.10;;
71164;SDS011;58859;55.132;-1.586;2023-02-11T17:16:12;1.70;;;1.00;;
71164;SDS011;58859;55.132;-1.586;2023-02-11T17:18:41;1.95;;;1.70;;
71164;SDS011;58859;55.132;-1.586;2023-02-11T17:21:06;0.90;;;0.90;;
71164;SDS011;58859;55.132;-1.586;2023-02-11T17:23:32;1.10;;;0.60;;
71164;SDS011;58859;55.132;-1.586;2023-02-11T17:25:57;0.80;;;0.80;;
71164;SDS011;58859;55.132;-1.586;2023-02-11T17:28:22;1.07;;;0.67;;